KHFD

Hartford-Brainard Airport

Hartford, Connecticut, USA
METAR KHFD 151553Z 00000KT 2 1/2SM BR SCT046 OVC055 09/08 A3018 RMK AO2 SLP218 T00890078 $
Observed Flight Rules
Dec-15 @ 15:53 UTC (12 minutes ago) Instrument Flight Rules
Visibility Clouds Conditions
2 1/2 miles
  • Scattered at 4,600' AGL
  • Overcast at 5,500' AGL
  • Mist
Temperatures Readings
Current 9°C / 48°F
Dewpoint 8°C / 46°F
Humidity 94%
Altimeter 30.18" Hg
Pressure 1021.8 hPa
Elevation 4
METAR KHFD 151553Z 00000KT 2 1/2SM BR SCT046 OVC055 09/08 A3018 RMK AO2 SLP218 T00890078 $
Observed Flight Rules
Dec-15 @ 15:53 UTC
(12 minutes ago)
IFR
Clouds
  • Scattered at 4,600' AGL
  • Overcast at 5,500' AGL
Conditions
  • Mist
Temperature Dewpoint
9°C / 48°F 8°C / 46°F
Humidity Altimeter Pressure
94% 30.18" Hg 1021.8 hPa